Aeroporto :
LOGIN :

Iscrizione | Disclaimer

   EN    FR    IT 

 










Sommario :    VFR   VFR Marginale   IFR   IFR Intensivo   IFR Molto Intensivo
Visibilità : 
Base nubi : 
>= 8 km
>= 3000ft
5 / 8 km
1000 / 3000 ft
1500m / 5 km
500 / 1000 ft
800 / 1500m
200 / 500 ft
< 800m
< 200 ft
Simboli :   Temporali  Nebbia  Neve Forte  Precipitazioni Forti  Vento > 20 kt
SIGMETs :   Varie  Temporali  Ghiacco  Turbolenza  Onda orograficha  Ceneri Vulcaniche






- Altitudine del aeroporto : 1306 ft
- Codice IATA : ACH


LSZR - Alten Rhein

ULTIMO METAR :
  • 271150Z 24009G19KT 180V280 9999 SHRA SCT035 BKN050 11/06 Q1005 RMK H

METARs OBSOLETI :
  • 271120Z 24009G19KT 180V280 9999 SHRA SCT035 BKN050 12/05 Q1005 RMK H
  • 271050Z 26009KT 200V300 9999 BKN045 13/06 Q1005 RMK G
  • 271020Z 25010KT 200V300 9999 BKN045 13/06 Q1005 RMK G
  • 270950Z 25010KT 200V290 9999 VCSH FEW040 SCT070 BKN100 12/06 Q1005 RMK F
  • 270920Z 25010KT 200V290 9999 VCSH FEW040 SCT070 BKN100 11/07 Q1005 RMK F

TAF TAF LSZR
Valido dal 27 a 12 ore il 27 a 21 ore UTC


271125Z 2712/2721 25010KT 9999 SCT030 BKN050
TEMPO 2712/2721 SHRA
TEMPO 2712/2718 27015G25KT
ATIS : +41 71 858 51 66



MetMap, La meteo Aeronautica in un colpo d'occhio ! - Copyright ORBIFLY Dicembre 2007 - Disclaimer

ORBIFLY MET'MAP TEAM :

Programmazione e sviluppo : Alexandra Zaïnal
Concezione : Baudouin d'Aumeries
Supporto tecnico e logistico : Manuel Goepfert
Aiuto : Marc-Olivier Méhu
Aiuto per la traduzione : Arnaldo La Scala




FONTI E CREDITI :

   NOAA